sensor_id;sensor_type;location;lat;lon;timestamp;P1;durP1;ratioP1;P2;durP2;ratioP2
39400;SDS011;54391;50.000;7.360;2023-06-22T00:02:21;10.55;;;9.27;;
39400;SDS011;54391;50.000;7.360;2023-06-22T00:04:49;11.40;;;8.88;;
39400;SDS011;54391;50.000;7.360;2023-06-22T00:07:16;13.55;;;9.75;;
39400;SDS011;54391;50.000;7.360;2023-06-22T00:09:44;10.77;;;8.65;;
39400;SDS011;54391;50.000;7.360;2023-06-22T00:12:11;11.02;;;9.05;;
39400;SDS011;54391;50.000;7.360;2023-06-22T00:14:38;11.05;;;8.93;;
39400;SDS011;54391;50.000;7.360;2023-06-22T00:17:06;11.18;;;9.05;;
39400;SDS011;54391;50.000;7.360;2023-06-22T00:19:33;12.57;;;9.38;;
39400;SDS011;54391;50.000;7.360;2023-06-22T00:22:00;11.43;;;9.10;;
39400;SDS011;54391;50.000;7.360;2023-06-22T00:24:28;12.75;;;9.15;;
39400;SDS011;54391;50.000;7.360;2023-06-22T00:26:57;13.77;;;9.00;;
39400;SDS011;54391;50.000;7.360;2023-06-22T00:29:24;10.25;;;8.77;;
39400;SDS011;54391;50.000;7.360;2023-06-22T00:31:55;12.15;;;9.40;;
39400;SDS011;54391;50.000;7.360;2023-06-22T00:34:22;14.57;;;10.00;;
39400;SDS011;54391;50.000;7.360;2023-06-22T00:36:49;13.63;;;10.68;;
39400;SDS011;54391;50.000;7.360;2023-06-22T00:39:17;14.50;;;11.00;;
39400;SDS011;54391;50.000;7.360;2023-06-22T00:41:44;13.35;;;10.63;;
39400;SDS011;54391;50.000;7.360;2023-06-22T00:44:13;13.65;;;10.90;;
39400;SDS011;54391;50.000;7.360;2023-06-22T00:46:40;14.85;;;12.00;;
39400;SDS011;54391;50.000;7.360;2023-06-22T00:49:09;14.63;;;11.80;;
39400;SDS011;54391;50.000;7.360;2023-06-22T00:51:36;14.52;;;10.60;;
39400;SDS011;54391;50.000;7.360;2023-06-22T00:54:04;11.73;;;10.02;;
39400;SDS011;54391;50.000;7.360;2023-06-22T00:56:32;13.95;;;9.13;;
39400;SDS011;54391;50.000;7.360;2023-06-22T00:59:02;14.32;;;10.48;;
39400;SDS011;54391;50.000;7.360;2023-06-22T01:01:38;12.02;;;9.60;;
39400;SDS011;54391;50.000;7.360;2023-06-22T01:04:17;11.85;;;9.55;;
39400;SDS011;54391;50.000;7.360;2023-06-22T01:06:45;10.48;;;9.02;;
39400;SDS011;54391;50.000;7.360;2023-06-22T01:09:28;12.23;;;8.70;;
39400;SDS011;54391;50.000;7.360;2023-06-22T01:17:46;11.25;;;8.32;;
39400;SDS011;54391;50.000;7.360;2023-06-22T01:20:16;11.98;;;9.48;;
39400;SDS011;54391;50.000;7.360;2023-06-22T01:22:46;11.13;;;9.30;;
39400;SDS011;54391;50.000;7.360;2023-06-22T01:25:28;10.82;;;8.80;;
39400;SDS011;54391;50.000;7.360;2023-06-22T01:28:03;12.07;;;8.40;;
39400;SDS011;54391;50.000;7.360;2023-06-22T01:30:42;11.77;;;8.48;;
39400;SDS011;54391;50.000;7.360;2023-06-22T01:33:12;11.30;;;9.05;;
39400;SDS011;54391;50.000;7.360;2023-06-22T01:43:40;9.50;;;8.45;;
39400;SDS011;54391;50.000;7.360;2023-06-22T01:46:10;10.50;;;9.20;;
39400;SDS011;54391;50.000;7.360;2023-06-22T01:48:38;11.77;;;9.27;;
39400;SDS011;54391;50.000;7.360;2023-06-22T01:51:06;12.70;;;9.57;;
39400;SDS011;54391;50.000;7.360;2023-06-22T01:53:33;10.90;;;9.07;;
39400;SDS011;54391;50.000;7.360;2023-06-22T01:56:01;11.20;;;9.95;;
39400;SDS011;54391;50.000;7.360;2023-06-22T01:58:29;12.15;;;9.75;;
39400;SDS011;54391;50.000;7.360;2023-06-22T02:00:58;14.77;;;10.27;;
39400;SDS011;54391;50.000;7.360;2023-06-22T02:03:34;12.23;;;10.18;;
39400;SDS011;54391;50.000;7.360;2023-06-22T02:06:05;12.10;;;10.00;;
39400;SDS011;54391;50.000;7.360;2023-06-22T02:08:38;12.38;;;9.85;;
39400;SDS011;54391;50.000;7.360;2023-06-22T02:11:08;11.05;;;9.70;;
39400;SDS011;54391;50.000;7.360;2023-06-22T02:13:36;12.55;;;9.52;;
39400;SDS011;54391;50.000;7.360;2023-06-22T02:16:08;11.73;;;9.40;;
39400;SDS011;54391;50.000;7.360;2023-06-22T02:18:40;12.77;;;9.85;;
39400;SDS011;54391;50.000;7.360;2023-06-22T02:21:13;11.07;;;8.95;;
39400;SDS011;54391;50.000;7.360;2023-06-22T02:23:41;11.52;;;9.27;;
39400;SDS011;54391;50.000;7.360;2023-06-22T02:26:08;10.57;;;9.15;;
39400;SDS011;54391;50.000;7.360;2023-06-22T02:28:36;12.35;;;8.93;;
39400;SDS011;54391;50.000;7.360;2023-06-22T02:31:03;11.52;;;9.30;;
39400;SDS011;54391;50.000;7.360;2023-06-22T02:33:30;11.60;;;8.70;;
39400;SDS011;54391;50.000;7.360;2023-06-22T02:35:59;11.25;;;8.70;;
39400;SDS011;54391;50.000;7.360;2023-06-22T02:38:30;10.70;;;9.38;;
39400;SDS011;54391;50.000;7.360;2023-06-22T02:40:59;12.07;;;9.57;;
39400;SDS011;54391;50.000;7.360;2023-06-22T02:43:27;12.35;;;9.15;;
39400;SDS011;54391;50.000;7.360;2023-06-22T02:45:55;11.68;;;9.57;;
39400;SDS011;54391;50.000;7.360;2023-06-22T02:48:23;12.02;;;9.07;;
39400;SDS011;54391;50.000;7.360;2023-06-22T02:50:50;11.35;;;9.23;;
39400;SDS011;54391;50.000;7.360;2023-06-22T02:53:19;11.15;;;9.60;;
39400;SDS011;54391;50.000;7.360;2023-06-22T02:55:46;11.88;;;9.50;;
39400;SDS011;54391;50.000;7.360;2023-06-22T02:58:14;13.88;;;8.95;;
39400;SDS011;54391;50.000;7.360;2023-06-22T03:00:42;11.68;;;8.75;;
39400;SDS011;54391;50.000;7.360;2023-06-22T03:03:09;12.75;;;9.77;;
39400;SDS011;54391;50.000;7.360;2023-06-22T03:05:36;12.23;;;9.25;;
39400;SDS011;54391;50.000;7.360;2023-06-22T03:08:05;11.98;;;9.27;;
39400;SDS011;54391;50.000;7.360;2023-06-22T03:10:35;10.00;;;8.50;;
39400;SDS011;54391;50.000;7.360;2023-06-22T03:13:03;10.32;;;8.20;;
39400;SDS011;54391;50.000;7.360;2023-06-22T03:15:30;11.50;;;8.65;;
39400;SDS011;54391;50.000;7.360;2023-06-22T03:17:59;9.20;;;8.20;;
39400;SDS011;54391;50.000;7.360;2023-06-22T03:20:27;12.98;;;9.35;;
39400;SDS011;54391;50.000;7.360;2023-06-22T03:22:58;10.90;;;8.73;;
39400;SDS011;54391;50.000;7.360;2023-06-22T03:25:27;11.73;;;9.30;;
39400;SDS011;54391;50.000;7.360;2023-06-22T03:27:55;10.82;;;8.85;;
39400;SDS011;54391;50.000;7.360;2023-06-22T03:30:25;13.48;;;9.80;;
39400;SDS011;54391;50.000;7.360;2023-06-22T03:32:52;11.95;;;8.95;;
39400;SDS011;54391;50.000;7.360;2023-06-22T03:35:19;11.68;;;9.15;;
39400;SDS011;54391;50.000;7.360;2023-06-22T03:37:48;10.93;;;9.35;;
39400;SDS011;54391;50.000;7.360;2023-06-22T03:40:15;12.00;;;9.82;;
39400;SDS011;54391;50.000;7.360;2023-06-22T03:42:42;12.50;;;10.45;;
39400;SDS011;54391;50.000;7.360;2023-06-22T03:45:11;12.90;;;9.23;;
39400;SDS011;54391;50.000;7.360;2023-06-22T03:47:38;13.45;;;10.25;;
39400;SDS011;54391;50.000;7.360;2023-06-22T03:50:06;11.88;;;9.60;;
39400;SDS011;54391;50.000;7.360;2023-06-22T03:52:33;13.63;;;9.32;;
39400;SDS011;54391;50.000;7.360;2023-06-22T03:55:00;11.50;;;9.35;;
39400;SDS011;54391;50.000;7.360;2023-06-22T03:57:27;10.63;;;8.48;;
39400;SDS011;54391;50.000;7.360;2023-06-22T03:59:56;12.10;;;9.35;;
39400;SDS011;54391;50.000;7.360;2023-06-22T04:02:25;12.48;;;9.45;;
39400;SDS011;54391;50.000;7.360;2023-06-22T04:04:52;12.73;;;9.43;;
39400;SDS011;54391;50.000;7.360;2023-06-22T04:07:19;11.50;;;8.63;;
39400;SDS011;54391;50.000;7.360;2023-06-22T04:09:46;11.40;;;9.32;;
39400;SDS011;54391;50.000;7.360;2023-06-22T04:12:13;13.60;;;9.82;;
39400;SDS011;54391;50.000;7.360;2023-06-22T04:14:41;12.82;;;9.68;;
39400;SDS011;54391;50.000;7.360;2023-06-22T04:17:08;10.57;;;8.65;;
39400;SDS011;54391;50.000;7.360;2023-06-22T04:19:41;12.50;;;8.68;;
39400;SDS011;54391;50.000;7.360;2023-06-22T04:22:08;12.13;;;9.60;;
39400;SDS011;54391;50.000;7.360;2023-06-22T04:24:35;12.48;;;9.23;;
39400;SDS011;54391;50.000;7.360;2023-06-22T04:27:02;14.15;;;9.02;;
39400;SDS011;54391;50.000;7.360;2023-06-22T04:29:30;12.35;;;9.60;;
39400;SDS011;54391;50.000;7.360;2023-06-22T04:31:57;11.43;;;9.65;;
39400;SDS011;54391;50.000;7.360;2023-06-22T04:34:28;10.90;;;9.77;;
39400;SDS011;54391;50.000;7.360;2023-06-22T04:36:57;13.63;;;9.95;;
39400;SDS011;54391;50.000;7.360;2023-06-22T04:39:24;11.15;;;9.18;;
39400;SDS011;54391;50.000;7.360;2023-06-22T04:41:52;13.00;;;9.93;;
39400;SDS011;54391;50.000;7.360;2023-06-22T04:44:25;11.10;;;9.45;;
39400;SDS011;54391;50.000;7.360;2023-06-22T04:46:53;12.48;;;9.07;;
39400;SDS011;54391;50.000;7.360;2023-06-22T04:49:25;15.52;;;9.60;;
39400;SDS011;54391;50.000;7.360;2023-06-22T04:51:59;12.48;;;9.13;;
39400;SDS011;54391;50.000;7.360;2023-06-22T04:54:27;11.63;;;9.50;;
39400;SDS011;54391;50.000;7.360;2023-06-22T04:56:54;11.55;;;9.30;;
39400;SDS011;54391;50.000;7.360;2023-06-22T04:59:22;11.50;;;9.32;;
39400;SDS011;54391;50.000;7.360;2023-06-22T05:01:53;11.20;;;9.05;;
39400;SDS011;54391;50.000;7.360;2023-06-22T05:04:21;12.07;;;10.05;;
39400;SDS011;54391;50.000;7.360;2023-06-22T05:06:48;12.73;;;9.27;;
39400;SDS011;54391;50.000;7.360;2023-06-22T05:09:17;12.77;;;9.93;;
39400;SDS011;54391;50.000;7.360;2023-06-22T05:11:44;11.85;;;9.40;;
39400;SDS011;54391;50.000;7.360;2023-06-22T05:14:12;11.85;;;9.48;;
39400;SDS011;54391;50.000;7.360;2023-06-22T05:16:40;15.05;;;9.43;;
39400;SDS011;54391;50.000;7.360;2023-06-22T05:19:08;13.80;;;9.38;;
39400;SDS011;54391;50.000;7.360;2023-06-22T05:21:35;14.25;;;10.82;;
39400;SDS011;54391;50.000;7.360;2023-06-22T05:24:03;13.40;;;10.13;;
39400;SDS011;54391;50.000;7.360;2023-06-22T05:26:33;14.65;;;9.93;;
39400;SDS011;54391;50.000;7.360;2023-06-22T05:29:01;12.77;;;9.82;;
39400;SDS011;54391;50.000;7.360;2023-06-22T05:31:28;13.45;;;10.05;;
39400;SDS011;54391;50.000;7.360;2023-06-22T05:33:56;15.82;;;10.20;;
39400;SDS011;54391;50.000;7.360;2023-06-22T05:36:40;13.20;;;10.05;;
39400;SDS011;54391;50.000;7.360;2023-06-22T05:39:12;12.48;;;9.27;;
39400;SDS011;54391;50.000;7.360;2023-06-22T05:41:41;14.73;;;9.90;;
39400;SDS011;54391;50.000;7.360;2023-06-22T05:44:11;14.30;;;9.68;;
39400;SDS011;54391;50.000;7.360;2023-06-22T05:46:40;14.95;;;10.50;;
39400;SDS011;54391;50.000;7.360;2023-06-22T05:49:09;13.38;;;9.65;;
39400;SDS011;54391;50.000;7.360;2023-06-22T05:51:36;14.40;;;9.68;;
39400;SDS011;54391;50.000;7.360;2023-06-22T05:54:04;14.55;;;10.60;;
39400;SDS011;54391;50.000;7.360;2023-06-22T05:56:31;10.98;;;9.15;;
39400;SDS011;54391;50.000;7.360;2023-06-22T05:59:12;12.70;;;9.85;;
39400;SDS011;54391;50.000;7.360;2023-06-22T06:01:39;13.45;;;10.25;;
39400;SDS011;54391;50.000;7.360;2023-06-22T06:04:06;12.75;;;10.43;;
39400;SDS011;54391;50.000;7.360;2023-06-22T06:06:34;14.48;;;10.63;;
39400;SDS011;54391;50.000;7.360;2023-06-22T06:09:03;14.20;;;10.82;;
39400;SDS011;54391;50.000;7.360;2023-06-22T06:11:33;13.40;;;10.35;;
39400;SDS011;54391;50.000;7.360;2023-06-22T06:17:14;12.80;;;10.25;;
39400;SDS011;54391;50.000;7.360;2023-06-22T06:19:41;15.35;;;11.80;;
39400;SDS011;54391;50.000;7.360;2023-06-22T06:22:08;14.80;;;11.05;;
39400;SDS011;54391;50.000;7.360;2023-06-22T06:24:35;16.35;;;11.05;;
39400;SDS011;54391;50.000;7.360;2023-06-22T06:27:02;15.43;;;11.13;;
39400;SDS011;54391;50.000;7.360;2023-06-22T06:29:31;13.73;;;10.98;;
39400;SDS011;54391;50.000;7.360;2023-06-22T06:31:58;15.73;;;11.43;;
39400;SDS011;54391;50.000;7.360;2023-06-22T06:34:28;18.27;;;10.80;;
39400;SDS011;54391;50.000;7.360;2023-06-22T06:36:55;17.27;;;11.55;;
39400;SDS011;54391;50.000;7.360;2023-06-22T06:39:23;14.23;;;10.50;;
39400;SDS011;54391;50.000;7.360;2023-06-22T06:41:50;13.55;;;10.20;;
39400;SDS011;54391;50.000;7.360;2023-06-22T06:44:18;12.98;;;10.43;;
39400;SDS011;54391;50.000;7.360;2023-06-22T06:46:46;13.07;;;10.13;;
39400;SDS011;54391;50.000;7.360;2023-06-22T06:49:13;12.98;;;10.80;;
39400;SDS011;54391;50.000;7.360;2023-06-22T06:51:42;13.40;;;10.30;;
39400;SDS011;54391;50.000;7.360;2023-06-22T06:54:09;13.00;;;10.27;;
39400;SDS011;54391;50.000;7.360;2023-06-22T06:56:36;15.90;;;10.05;;
39400;SDS011;54391;50.000;7.360;2023-06-22T06:59:03;13.55;;;11.00;;
39400;SDS011;54391;50.000;7.360;2023-06-22T07:01:31;12.45;;;10.48;;
39400;SDS011;54391;50.000;7.360;2023-06-22T07:03:59;15.77;;;10.57;;
39400;SDS011;54391;50.000;7.360;2023-06-22T07:06:26;12.90;;;10.40;;
39400;SDS011;54391;50.000;7.360;2023-06-22T07:08:58;15.00;;;10.80;;
39400;SDS011;54391;50.000;7.360;2023-06-22T07:11:27;11.00;;;9.27;;
39400;SDS011;54391;50.000;7.360;2023-06-22T07:13:54;13.18;;;10.02;;
39400;SDS011;54391;50.000;7.360;2023-06-22T07:16:21;14.40;;;10.00;;
39400;SDS011;54391;50.000;7.360;2023-06-22T07:18:50;14.48;;;9.68;;
39400;SDS011;54391;50.000;7.360;2023-06-22T07:21:17;11.52;;;9.20;;
39400;SDS011;54391;50.000;7.360;2023-06-22T07:23:44;12.32;;;9.90;;
39400;SDS011;54391;50.000;7.360;2023-06-22T07:26:13;11.55;;;10.25;;
39400;SDS011;54391;50.000;7.360;2023-06-22T07:28:42;13.15;;;10.13;;
39400;SDS011;54391;50.000;7.360;2023-06-22T07:31:09;16.67;;;10.70;;
39400;SDS011;54391;50.000;7.360;2023-06-22T07:33:36;12.88;;;10.25;;
39400;SDS011;54391;50.000;7.360;2023-06-22T07:36:03;12.77;;;10.23;;
39400;SDS011;54391;50.000;7.360;2023-06-22T07:38:33;11.68;;;9.77;;
39400;SDS011;54391;50.000;7.360;2023-06-22T07:41:00;16.90;;;9.98;;
39400;SDS011;54391;50.000;7.360;2023-06-22T07:43:31;11.77;;;9.43;;
39400;SDS011;54391;50.000;7.360;2023-06-22T07:45:59;14.32;;;10.63;;
39400;SDS011;54391;50.000;7.360;2023-06-22T07:48:27;12.40;;;10.02;;
39400;SDS011;54391;50.000;7.360;2023-06-22T07:50:54;13.38;;;9.75;;
39400;SDS011;54391;50.000;7.360;2023-06-22T07:53:21;12.20;;;9.70;;
39400;SDS011;54391;50.000;7.360;2023-06-22T07:55:49;12.43;;;8.88;;
39400;SDS011;54391;50.000;7.360;2023-06-22T07:58:16;10.95;;;9.80;;
39400;SDS011;54391;50.000;7.360;2023-06-22T08:00:47;10.70;;;9.30;;
39400;SDS011;54391;50.000;7.360;2023-06-22T08:03:15;14.70;;;9.93;;
39400;SDS011;54391;50.000;7.360;2023-06-22T08:05:42;13.98;;;9.57;;
39400;SDS011;54391;50.000;7.360;2023-06-22T08:08:09;13.23;;;10.02;;
39400;SDS011;54391;50.000;7.360;2023-06-22T08:10:36;11.02;;;8.75;;
39400;SDS011;54391;50.000;7.360;2023-06-22T08:13:04;11.32;;;8.90;;
39400;SDS011;54391;50.000;7.360;2023-06-22T08:15:31;10.85;;;9.05;;
39400;SDS011;54391;50.000;7.360;2023-06-22T08:18:00;11.30;;;9.65;;
39400;SDS011;54391;50.000;7.360;2023-06-22T08:20:27;12.88;;;9.35;;
39400;SDS011;54391;50.000;7.360;2023-06-22T08:22:54;12.10;;;9.43;;
39400;SDS011;54391;50.000;7.360;2023-06-22T08:25:23;13.18;;;9.60;;
39400;SDS011;54391;50.000;7.360;2023-06-22T08:27:50;12.52;;;9.85;;
39400;SDS011;54391;50.000;7.360;2023-06-22T08:30:18;11.85;;;8.98;;
39400;SDS011;54391;50.000;7.360;2023-06-22T08:32:45;15.35;;;9.30;;
39400;SDS011;54391;50.000;7.360;2023-06-22T08:35:13;13.88;;;9.55;;
39400;SDS011;54391;50.000;7.360;2023-06-22T08:37:40;14.73;;;10.98;;
39400;SDS011;54391;50.000;7.360;2023-06-22T08:40:08;11.00;;;8.63;;
39400;SDS011;54391;50.000;7.360;2023-06-22T08:42:36;13.55;;;8.88;;
39400;SDS011;54391;50.000;7.360;2023-06-22T08:45:04;10.52;;;8.73;;
39400;SDS011;54391;50.000;7.360;2023-06-22T08:47:32;12.38;;;8.25;;
39400;SDS011;54391;50.000;7.360;2023-06-22T08:49:59;14.13;;;9.88;;
39400;SDS011;54391;50.000;7.360;2023-06-22T08:52:29;13.18;;;10.07;;
39400;SDS011;54391;50.000;7.360;2023-06-22T08:54:57;13.30;;;10.05;;
39400;SDS011;54391;50.000;7.360;2023-06-22T08:57:24;11.73;;;8.93;;
39400;SDS011;54391;50.000;7.360;2023-06-22T08:59:51;12.90;;;9.48;;
39400;SDS011;54391;50.000;7.360;2023-06-22T09:02:19;12.77;;;9.27;;
39400;SDS011;54391;50.000;7.360;2023-06-22T09:04:46;11.80;;;9.88;;
39400;SDS011;54391;50.000;7.360;2023-06-22T09:07:15;12.20;;;9.45;;
39400;SDS011;54391;50.000;7.360;2023-06-22T09:09:48;9.45;;;7.65;;
39400;SDS011;54391;50.000;7.360;2023-06-22T09:12:16;9.18;;;7.60;;
39400;SDS011;54391;50.000;7.360;2023-06-22T09:14:45;11.23;;;7.30;;
39400;SDS011;54391;50.000;7.360;2023-06-22T09:17:12;9.20;;;7.13;;
39400;SDS011;54391;50.000;7.360;2023-06-22T09:19:40;8.82;;;6.50;;
39400;SDS011;54391;50.000;7.360;2023-06-22T09:22:07;8.60;;;6.28;;
39400;SDS011;54391;50.000;7.360;2023-06-22T09:24:34;11.45;;;7.10;;
39400;SDS011;54391;50.000;7.360;2023-06-22T09:27:03;12.23;;;7.68;;
39400;SDS011;54391;50.000;7.360;2023-06-22T09:29:31;11.50;;;8.15;;
39400;SDS011;54391;50.000;7.360;2023-06-22T09:31:59;15.82;;;8.18;;
39400;SDS011;54391;50.000;7.360;2023-06-22T09:34:27;13.90;;;8.85;;
39400;SDS011;54391;50.000;7.360;2023-06-22T09:36:56;12.75;;;9.38;;
39400;SDS011;54391;50.000;7.360;2023-06-22T09:39:27;13.60;;;9.32;;
39400;SDS011;54391;50.000;7.360;2023-06-22T09:41:54;11.48;;;9.02;;
39400;SDS011;54391;50.000;7.360;2023-06-22T09:44:23;10.85;;;8.68;;
39400;SDS011;54391;50.000;7.360;2023-06-22T09:46:50;15.45;;;8.38;;
39400;SDS011;54391;50.000;7.360;2023-06-22T09:49:17;12.18;;;9.40;;
39400;SDS011;54391;50.000;7.360;2023-06-22T09:51:45;14.73;;;9.85;;
39400;SDS011;54391;50.000;7.360;2023-06-22T09:54:12;13.98;;;10.57;;
39400;SDS011;54391;50.000;7.360;2023-06-22T09:56:39;12.30;;;10.52;;
39400;SDS011;54391;50.000;7.360;2023-06-22T09:59:06;14.07;;;10.27;;
39400;SDS011;54391;50.000;7.360;2023-06-22T10:01:35;13.73;;;9.68;;
39400;SDS011;54391;50.000;7.360;2023-06-22T10:04:02;15.38;;;10.98;;
39400;SDS011;54391;50.000;7.360;2023-06-22T10:06:29;16.67;;;10.80;;
39400;SDS011;54391;50.000;7.360;2023-06-22T10:08:57;17.73;;;10.07;;
39400;SDS011;54391;50.000;7.360;2023-06-22T10:11:24;11.75;;;9.25;;
39400;SDS011;54391;50.000;7.360;2023-06-22T10:13:54;11.80;;;9.18;;
39400;SDS011;54391;50.000;7.360;2023-06-22T10:16:23;11.27;;;8.40;;
39400;SDS011;54391;50.000;7.360;2023-06-22T10:18:53;12.18;;;8.35;;
39400;SDS011;54391;50.000;7.360;2023-06-22T10:21:20;10.77;;;8.60;;
39400;SDS011;54391;50.000;7.360;2023-06-22T10:23:47;11.25;;;8.32;;
39400;SDS011;54391;50.000;7.360;2023-06-22T10:26:14;12.88;;;8.65;;
39400;SDS011;54391;50.000;7.360;2023-06-22T10:28:41;11.52;;;8.77;;
39400;SDS011;54391;50.000;7.360;2023-06-22T10:31:09;10.77;;;8.20;;
39400;SDS011;54391;50.000;7.360;2023-06-22T10:33:36;9.35;;;7.68;;
39400;SDS011;54391;50.000;7.360;2023-06-22T10:36:04;12.43;;;6.78;;
39400;SDS011;54391;50.000;7.360;2023-06-22T10:38:32;10.50;;;7.32;;
39400;SDS011;54391;50.000;7.360;2023-06-22T10:40:59;10.90;;;8.32;;
39400;SDS011;54391;50.000;7.360;2023-06-22T10:43:27;9.45;;;8.10;;
39400;SDS011;54391;50.000;7.360;2023-06-22T10:45:55;11.63;;;8.15;;
39400;SDS011;54391;50.000;7.360;2023-06-22T10:48:22;11.10;;;7.85;;
39400;SDS011;54391;50.000;7.360;2023-06-22T10:50:49;11.93;;;8.00;;
39400;SDS011;54391;50.000;7.360;2023-06-22T10:53:17;11.82;;;8.10;;
39400;SDS011;54391;50.000;7.360;2023-06-22T10:55:44;10.30;;;7.22;;
39400;SDS011;54391;50.000;7.360;2023-06-22T10:58:12;10.82;;;7.75;;
39400;SDS011;54391;50.000;7.360;2023-06-22T11:00:39;10.27;;;7.80;;
39400;SDS011;54391;50.000;7.360;2023-06-22T11:03:06;10.77;;;8.27;;
39400;SDS011;54391;50.000;7.360;2023-06-22T11:05:33;13.55;;;8.77;;
39400;SDS011;54391;50.000;7.360;2023-06-22T11:08:00;12.05;;;8.18;;
39400;SDS011;54391;50.000;7.360;2023-06-22T11:10:29;11.43;;;8.10;;
39400;SDS011;54391;50.000;7.360;2023-06-22T11:12:56;12.02;;;8.45;;
39400;SDS011;54391;50.000;7.360;2023-06-22T11:15:24;11.57;;;8.18;;
39400;SDS011;54391;50.000;7.360;2023-06-22T11:17:51;10.20;;;8.25;;
39400;SDS011;54391;50.000;7.360;2023-06-22T11:20:18;13.35;;;8.70;;
39400;SDS011;54391;50.000;7.360;2023-06-22T11:22:45;13.68;;;8.88;;
39400;SDS011;54391;50.000;7.360;2023-06-22T11:25:12;13.05;;;9.00;;
39400;SDS011;54391;50.000;7.360;2023-06-22T11:27:41;10.75;;;8.32;;
39400;SDS011;54391;50.000;7.360;2023-06-22T11:30:08;10.88;;;9.68;;
39400;SDS011;54391;50.000;7.360;2023-06-22T11:32:36;10.90;;;8.90;;
39400;SDS011;54391;50.000;7.360;2023-06-22T11:35:03;15.38;;;9.25;;
39400;SDS011;54391;50.000;7.360;2023-06-22T11:37:30;11.63;;;9.30;;
39400;SDS011;54391;50.000;7.360;2023-06-22T11:39:58;12.50;;;9.35;;
39400;SDS011;54391;50.000;7.360;2023-06-22T11:42:25;15.00;;;9.90;;
39400;SDS011;54391;50.000;7.360;2023-06-22T11:44:55;12.32;;;9.75;;
39400;SDS011;54391;50.000;7.360;2023-06-22T11:47:22;16.50;;;9.70;;
39400;SDS011;54391;50.000;7.360;2023-06-22T11:49:49;11.93;;;9.55;;
39400;SDS011;54391;50.000;7.360;2023-06-22T11:52:16;14.63;;;9.48;;
39400;SDS011;54391;50.000;7.360;2023-06-22T11:54:44;12.57;;;9.52;;
39400;SDS011;54391;50.000;7.360;2023-06-22T11:57:12;14.18;;;10.05;;
39400;SDS011;54391;50.000;7.360;2023-06-22T11:59:39;12.80;;;9.52;;
39400;SDS011;54391;50.000;7.360;2023-06-22T12:02:08;13.70;;;9.57;;
39400;SDS011;54391;50.000;7.360;2023-06-22T12:04:35;13.27;;;9.25;;
39400;SDS011;54391;50.000;7.360;2023-06-22T12:07:03;13.38;;;10.13;;
39400;SDS011;54391;50.000;7.360;2023-06-22T12:09:30;17.90;;;10.02;;
39400;SDS011;54391;50.000;7.360;2023-06-22T12:11:57;14.70;;;9.18;;
39400;SDS011;54391;50.000;7.360;2023-06-22T12:14:24;11.10;;;9.48;;
39400;SDS011;54391;50.000;7.360;2023-06-22T12:16:51;12.55;;;8.98;;
39400;SDS011;54391;50.000;7.360;2023-06-22T12:19:20;12.52;;;9.35;;
39400;SDS011;54391;50.000;7.360;2023-06-22T12:21:47;14.35;;;9.45;;
39400;SDS011;54391;50.000;7.360;2023-06-22T12:24:14;16.55;;;9.45;;
39400;SDS011;54391;50.000;7.360;2023-06-22T12:26:41;15.93;;;8.98;;
39400;SDS011;54391;50.000;7.360;2023-06-22T12:29:09;12.32;;;9.05;;
39400;SDS011;54391;50.000;7.360;2023-06-22T12:31:36;16.67;;;10.32;;
39400;SDS011;54391;50.000;7.360;2023-06-22T12:34:04;16.10;;;7.78;;
39400;SDS011;54391;50.000;7.360;2023-06-22T12:36:32;15.00;;;7.97;;
39400;SDS011;54391;50.000;7.360;2023-06-22T12:39:00;12.50;;;8.85;;
39400;SDS011;54391;50.000;7.360;2023-06-22T12:41:27;34.45;;;11.10;;
39400;SDS011;54391;50.000;7.360;2023-06-22T12:43:54;17.65;;;9.75;;
39400;SDS011;54391;50.000;7.360;2023-06-22T12:46:21;16.88;;;8.48;;
39400;SDS011;54391;50.000;7.360;2023-06-22T12:48:48;15.35;;;8.63;;
39400;SDS011;54391;50.000;7.360;2023-06-22T12:51:20;14.40;;;8.70;;
39400;SDS011;54391;50.000;7.360;2023-06-22T12:53:49;14.05;;;9.13;;
39400;SDS011;54391;50.000;7.360;2023-06-22T12:56:17;15.75;;;9.13;;
39400;SDS011;54391;50.000;7.360;2023-06-22T12:58:44;12.05;;;8.68;;
39400;SDS011;54391;50.000;7.360;2023-06-22T13:01:11;13.15;;;9.25;;
39400;SDS011;54391;50.000;7.360;2023-06-22T13:03:38;15.15;;;9.00;;
39400;SDS011;54391;50.000;7.360;2023-06-22T13:06:05;16.58;;;9.07;;
39400;SDS011;54391;50.000;7.360;2023-06-22T13:08:32;14.65;;;9.07;;
39400;SDS011;54391;50.000;7.360;2023-06-22T13:11:01;15.55;;;8.93;;
39400;SDS011;54391;50.000;7.360;2023-06-22T13:13:28;13.32;;;8.73;;
39400;SDS011;54391;50.000;7.360;2023-06-22T13:15:55;13.48;;;7.93;;
39400;SDS011;54391;50.000;7.360;2023-06-22T13:18:22;14.18;;;8.20;;
39400;SDS011;54391;50.000;7.360;2023-06-22T13:20:49;11.93;;;7.40;;
39400;SDS011;54391;50.000;7.360;2023-06-22T13:23:19;13.95;;;6.63;;
39400;SDS011;54391;50.000;7.360;2023-06-22T13:25:47;13.63;;;7.10;;
39400;SDS011;54391;50.000;7.360;2023-06-22T13:28:15;11.65;;;6.85;;
39400;SDS011;54391;50.000;7.360;2023-06-22T13:30:42;11.38;;;7.38;;
39400;SDS011;54391;50.000;7.360;2023-06-22T13:33:12;12.65;;;7.15;;
39400;SDS011;54391;50.000;7.360;2023-06-22T13:35:39;11.05;;;7.07;;
39400;SDS011;54391;50.000;7.360;2023-06-22T13:38:07;12.73;;;7.43;;
39400;SDS011;54391;50.000;7.360;2023-06-22T13:40:35;13.90;;;7.72;;
39400;SDS011;54391;50.000;7.360;2023-06-22T13:43:03;13.38;;;7.22;;
39400;SDS011;54391;50.000;7.360;2023-06-22T13:45:31;13.88;;;7.40;;
39400;SDS011;54391;50.000;7.360;2023-06-22T13:47:59;11.57;;;6.68;;
39400;SDS011;54391;50.000;7.360;2023-06-22T13:50:27;13.82;;;7.13;;
39400;SDS011;54391;50.000;7.360;2023-06-22T13:52:55;15.95;;;6.35;;
39400;SDS011;54391;50.000;7.360;2023-06-22T13:55:22;12.32;;;5.88;;
39400;SDS011;54391;50.000;7.360;2023-06-22T13:57:49;12.98;;;6.30;;
39400;SDS011;54391;50.000;7.360;2023-06-22T14:00:17;12.75;;;5.38;;
39400;SDS011;54391;50.000;7.360;2023-06-22T14:02:46;11.23;;;5.30;;
39400;SDS011;54391;50.000;7.360;2023-06-22T14:05:13;14.73;;;5.80;;
39400;SDS011;54391;50.000;7.360;2023-06-22T14:07:40;16.65;;;6.00;;
39400;SDS011;54391;50.000;7.360;2023-06-22T14:10:07;13.02;;;6.45;;
39400;SDS011;54391;50.000;7.360;2023-06-22T14:12:35;17.92;;;6.40;;
39400;SDS011;54391;50.000;7.360;2023-06-22T14:15:02;14.90;;;6.35;;
39400;SDS011;54391;50.000;7.360;2023-06-22T14:17:30;14.43;;;6.28;;
39400;SDS011;54391;50.000;7.360;2023-06-22T14:19:59;10.02;;;5.18;;
39400;SDS011;54391;50.000;7.360;2023-06-22T14:22:26;15.95;;;6.28;;
39400;SDS011;54391;50.000;7.360;2023-06-22T14:24:54;10.50;;;4.20;;
39400;SDS011;54391;50.000;7.360;2023-06-22T14:27:22;13.43;;;5.05;;
39400;SDS011;54391;50.000;7.360;2023-06-22T14:29:50;11.13;;;4.40;;
39400;SDS011;54391;50.000;7.360;2023-06-22T14:32:17;14.85;;;4.85;;
39400;SDS011;54391;50.000;7.360;2023-06-22T14:34:44;12.52;;;4.78;;
39400;SDS011;54391;50.000;7.360;2023-06-22T14:37:13;9.77;;;4.05;;
39400;SDS011;54391;50.000;7.360;2023-06-22T14:39:40;8.20;;;3.10;;
39400;SDS011;54391;50.000;7.360;2023-06-22T14:42:08;10.13;;;3.83;;
39400;SDS011;54391;50.000;7.360;2023-06-22T14:44:35;9.00;;;3.80;;
39400;SDS011;54391;50.000;7.360;2023-06-22T14:47:02;8.60;;;3.70;;
39400;SDS011;54391;50.000;7.360;2023-06-22T14:49:30;7.40;;;3.05;;
39400;SDS011;54391;50.000;7.360;2023-06-22T14:51:57;8.43;;;3.17;;
39400;SDS011;54391;50.000;7.360;2023-06-22T14:54:26;9.93;;;4.15;;
39400;SDS011;54391;50.000;7.360;2023-06-22T14:56:53;7.47;;;3.42;;